sensor_id;sensor_type;location;lat;lon;timestamp;P1;durP1;ratioP1;P2;durP2;ratioP2
52574;SDS011;38468;48.114;-1.684;2023-04-25T00:01:05;10.95;;;4.18;;
52574;SDS011;38468;48.114;-1.684;2023-04-25T00:03:06;12.57;;;4.88;;
52574;SDS011;38468;48.114;-1.684;2023-04-25T00:05:08;15.75;;;4.50;;
52574;SDS011;38468;48.114;-1.684;2023-04-25T00:07:09;12.25;;;4.72;;
52574;SDS011;38468;48.114;-1.684;2023-04-25T00:09:11;12.13;;;4.25;;
52574;SDS011;38468;48.114;-1.684;2023-04-25T00:11:12;11.88;;;4.20;;
52574;SDS011;38468;48.114;-1.684;2023-04-25T00:13:13;11.43;;;4.68;;
52574;SDS011;38468;48.114;-1.684;2023-04-25T00:15:14;11.73;;;4.43;;
52574;SDS011;38468;48.114;-1.684;2023-04-25T00:17:16;15.38;;;5.70;;
52574;SDS011;38468;48.114;-1.684;2023-04-25T00:19:16;13.57;;;4.43;;
52574;SDS011;38468;48.114;-1.684;2023-04-25T00:21:18;7.10;;;3.70;;
52574;SDS011;38468;48.114;-1.684;2023-04-25T00:23:19;7.15;;;3.85;;
52574;SDS011;38468;48.114;-1.684;2023-04-25T00:25:20;12.00;;;4.43;;
52574;SDS011;38468;48.114;-1.684;2023-04-25T00:27:21;14.48;;;5.25;;
52574;SDS011;38468;48.114;-1.684;2023-04-25T00:29:21;13.95;;;4.97;;
52574;SDS011;38468;48.114;-1.684;2023-04-25T00:31:22;10.18;;;3.88;;
52574;SDS011;38468;48.114;-1.684;2023-04-25T00:33:22;13.05;;;4.88;;
52574;SDS011;38468;48.114;-1.684;2023-04-25T00:35:23;13.25;;;4.97;;
52574;SDS011;38468;48.114;-1.684;2023-04-25T00:37:24;15.02;;;5.00;;
52574;SDS011;38468;48.114;-1.684;2023-04-25T00:39:24;13.52;;;5.03;;
52574;SDS011;38468;48.114;-1.684;2023-04-25T00:41:25;17.05;;;4.60;;
52574;SDS011;38468;48.114;-1.684;2023-04-25T00:43:27;9.13;;;4.43;;
52574;SDS011;38468;48.114;-1.684;2023-04-25T00:45:28;20.38;;;5.47;;
52574;SDS011;38468;48.114;-1.684;2023-04-25T00:47:30;13.85;;;5.18;;
52574;SDS011;38468;48.114;-1.684;2023-04-25T00:49:32;10.90;;;5.00;;
52574;SDS011;38468;48.114;-1.684;2023-04-25T00:51:33;10.18;;;4.50;;
52574;SDS011;38468;48.114;-1.684;2023-04-25T00:53:34;11.57;;;5.18;;
52574;SDS011;38468;48.114;-1.684;2023-04-25T00:55:35;10.40;;;4.65;;
52574;SDS011;38468;48.114;-1.684;2023-04-25T00:57:36;13.43;;;4.75;;
52574;SDS011;38468;48.114;-1.684;2023-04-25T00:59:37;10.32;;;5.28;;
52574;SDS011;38468;48.114;-1.684;2023-04-25T01:01:39;14.02;;;5.05;;
52574;SDS011;38468;48.114;-1.684;2023-04-25T01:03:40;11.50;;;3.77;;
52574;SDS011;38468;48.114;-1.684;2023-04-25T01:05:40;13.27;;;5.63;;
52574;SDS011;38468;48.114;-1.684;2023-04-25T01:07:42;15.27;;;4.63;;
52574;SDS011;38468;48.114;-1.684;2023-04-25T01:09:43;14.18;;;4.82;;
52574;SDS011;38468;48.114;-1.684;2023-04-25T01:11:43;10.55;;;4.30;;
52574;SDS011;38468;48.114;-1.684;2023-04-25T01:13:44;11.27;;;4.55;;
52574;SDS011;38468;48.114;-1.684;2023-04-25T01:15:45;12.02;;;5.32;;
52574;SDS011;38468;48.114;-1.684;2023-04-25T01:17:45;12.98;;;4.47;;
52574;SDS011;38468;48.114;-1.684;2023-04-25T01:19:47;12.25;;;5.03;;
52574;SDS011;38468;48.114;-1.684;2023-04-25T01:21:48;16.83;;;4.75;;
52574;SDS011;38468;48.114;-1.684;2023-04-25T01:23:50;9.63;;;4.50;;
52574;SDS011;38468;48.114;-1.684;2023-04-25T01:25:51;18.20;;;4.63;;
52574;SDS011;38468;48.114;-1.684;2023-04-25T01:27:52;10.95;;;4.68;;
52574;SDS011;38468;48.114;-1.684;2023-04-25T01:29:54;12.68;;;3.80;;
52574;SDS011;38468;48.114;-1.684;2023-04-25T01:31:54;11.83;;;5.20;;
52574;SDS011;38468;48.114;-1.684;2023-04-25T01:33:55;9.18;;;4.20;;
52574;SDS011;38468;48.114;-1.684;2023-04-25T01:35:57;13.40;;;4.72;;
52574;SDS011;38468;48.114;-1.684;2023-04-25T01:37:57;14.55;;;5.00;;
52574;SDS011;38468;48.114;-1.684;2023-04-25T01:39:58;16.42;;;5.47;;
52574;SDS011;38468;48.114;-1.684;2023-04-25T01:41:59;14.77;;;5.05;;
52574;SDS011;38468;48.114;-1.684;2023-04-25T01:44:00;11.30;;;4.47;;
52574;SDS011;38468;48.114;-1.684;2023-04-25T01:46:02;12.45;;;4.63;;
52574;SDS011;38468;48.114;-1.684;2023-04-25T01:48:02;11.73;;;5.60;;
52574;SDS011;38468;48.114;-1.684;2023-04-25T01:50:04;12.35;;;5.05;;
52574;SDS011;38468;48.114;-1.684;2023-04-25T01:52:06;11.80;;;4.10;;
52574;SDS011;38468;48.114;-1.684;2023-04-25T01:54:07;12.40;;;5.03;;
52574;SDS011;38468;48.114;-1.684;2023-04-25T01:56:08;14.35;;;4.78;;
52574;SDS011;38468;48.114;-1.684;2023-04-25T01:58:09;10.52;;;5.35;;
52574;SDS011;38468;48.114;-1.684;2023-04-25T02:00:12;14.93;;;5.10;;
52574;SDS011;38468;48.114;-1.684;2023-04-25T02:02:13;11.25;;;5.13;;
52574;SDS011;38468;48.114;-1.684;2023-04-25T02:04:14;15.18;;;4.85;;
52574;SDS011;38468;48.114;-1.684;2023-04-25T02:06:15;12.82;;;5.43;;
52574;SDS011;38468;48.114;-1.684;2023-04-25T02:08:15;10.85;;;4.63;;
52574;SDS011;38468;48.114;-1.684;2023-04-25T02:10:16;11.85;;;5.07;;
52574;SDS011;38468;48.114;-1.684;2023-04-25T02:12:17;14.23;;;4.55;;
52574;SDS011;38468;48.114;-1.684;2023-04-25T02:14:18;16.58;;;5.25;;
52574;SDS011;38468;48.114;-1.684;2023-04-25T02:16:18;15.27;;;5.75;;
52574;SDS011;38468;48.114;-1.684;2023-04-25T02:18:19;14.00;;;4.90;;
52574;SDS011;38468;48.114;-1.684;2023-04-25T02:20:21;12.15;;;4.93;;
52574;SDS011;38468;48.114;-1.684;2023-04-25T02:22:23;9.85;;;4.82;;
52574;SDS011;38468;48.114;-1.684;2023-04-25T02:24:23;12.02;;;4.45;;
52574;SDS011;38468;48.114;-1.684;2023-04-25T02:26:24;13.45;;;5.25;;
52574;SDS011;38468;48.114;-1.684;2023-04-25T02:28:25;12.13;;;4.43;;
52574;SDS011;38468;48.114;-1.684;2023-04-25T02:30:28;11.93;;;4.47;;
52574;SDS011;38468;48.114;-1.684;2023-04-25T02:32:29;8.20;;;4.97;;
52574;SDS011;38468;48.114;-1.684;2023-04-25T02:34:30;12.90;;;5.25;;
52574;SDS011;38468;48.114;-1.684;2023-04-25T02:36:30;9.20;;;4.25;;
52574;SDS011;38468;48.114;-1.684;2023-04-25T02:38:34;18.90;;;6.07;;
52574;SDS011;38468;48.114;-1.684;2023-04-25T02:40:35;12.85;;;5.60;;
52574;SDS011;38468;48.114;-1.684;2023-04-25T02:42:35;11.48;;;4.95;;
52574;SDS011;38468;48.114;-1.684;2023-04-25T02:44:36;15.68;;;4.72;;
52574;SDS011;38468;48.114;-1.684;2023-04-25T02:46:37;7.75;;;3.97;;
52574;SDS011;38468;48.114;-1.684;2023-04-25T02:48:37;16.55;;;6.65;;
52574;SDS011;38468;48.114;-1.684;2023-04-25T02:50:38;9.95;;;4.45;;
52574;SDS011;38468;48.114;-1.684;2023-04-25T02:52:38;10.48;;;5.35;;
52574;SDS011;38468;48.114;-1.684;2023-04-25T02:54:39;9.82;;;4.68;;
52574;SDS011;38468;48.114;-1.684;2023-04-25T02:56:40;10.60;;;4.75;;
52574;SDS011;38468;48.114;-1.684;2023-04-25T02:58:41;10.27;;;5.03;;
52574;SDS011;38468;48.114;-1.684;2023-04-25T03:00:41;12.57;;;4.85;;
52574;SDS011;38468;48.114;-1.684;2023-04-25T03:02:42;16.15;;;5.95;;
52574;SDS011;38468;48.114;-1.684;2023-04-25T03:04:42;20.02;;;5.70;;
52574;SDS011;38468;48.114;-1.684;2023-04-25T03:06:43;15.60;;;5.38;;
52574;SDS011;38468;48.114;-1.684;2023-04-25T03:08:44;9.98;;;4.95;;
52574;SDS011;38468;48.114;-1.684;2023-04-25T03:10:45;14.68;;;5.55;;
52574;SDS011;38468;48.114;-1.684;2023-04-25T03:12:45;8.45;;;4.68;;
52574;SDS011;38468;48.114;-1.684;2023-04-25T03:14:46;12.50;;;4.78;;
52574;SDS011;38468;48.114;-1.684;2023-04-25T03:16:47;15.15;;;5.72;;
52574;SDS011;38468;48.114;-1.684;2023-04-25T03:18:47;8.73;;;5.35;;
52574;SDS011;38468;48.114;-1.684;2023-04-25T03:20:50;11.70;;;5.20;;
52574;SDS011;38468;48.114;-1.684;2023-04-25T03:22:50;14.07;;;4.85;;
52574;SDS011;38468;48.114;-1.684;2023-04-25T03:24:51;11.15;;;4.28;;
52574;SDS011;38468;48.114;-1.684;2023-04-25T03:26:52;16.13;;;4.65;;
52574;SDS011;38468;48.114;-1.684;2023-04-25T03:28:52;8.45;;;5.07;;
52574;SDS011;38468;48.114;-1.684;2023-04-25T03:30:53;9.32;;;5.18;;
52574;SDS011;38468;48.114;-1.684;2023-04-25T03:32:54;11.65;;;4.65;;
52574;SDS011;38468;48.114;-1.684;2023-04-25T03:34:55;10.10;;;4.32;;
52574;SDS011;38468;48.114;-1.684;2023-04-25T03:36:55;9.10;;;5.47;;
52574;SDS011;38468;48.114;-1.684;2023-04-25T03:38:56;11.98;;;5.82;;
52574;SDS011;38468;48.114;-1.684;2023-04-25T03:40:57;13.95;;;5.50;;
52574;SDS011;38468;48.114;-1.684;2023-04-25T03:42:57;10.82;;;4.60;;
52574;SDS011;38468;48.114;-1.684;2023-04-25T03:44:58;19.50;;;8.20;;
52574;SDS011;38468;48.114;-1.684;2023-04-25T03:46:59;9.43;;;4.43;;
52574;SDS011;38468;48.114;-1.684;2023-04-25T03:48:59;11.80;;;5.05;;
52574;SDS011;38468;48.114;-1.684;2023-04-25T03:51:05;6.93;;;4.10;;
52574;SDS011;38468;48.114;-1.684;2023-04-25T03:53:06;13.35;;;4.25;;
52574;SDS011;38468;48.114;-1.684;2023-04-25T03:55:06;10.20;;;4.15;;
52574;SDS011;38468;48.114;-1.684;2023-04-25T03:57:07;17.40;;;5.68;;
52574;SDS011;38468;48.114;-1.684;2023-04-25T03:59:08;7.63;;;4.28;;
52574;SDS011;38468;48.114;-1.684;2023-04-25T04:01:09;13.55;;;5.45;;
52574;SDS011;38468;48.114;-1.684;2023-04-25T04:03:10;17.70;;;5.78;;
52574;SDS011;38468;48.114;-1.684;2023-04-25T04:05:11;11.75;;;4.30;;
52574;SDS011;38468;48.114;-1.684;2023-04-25T04:07:12;11.38;;;5.28;;
52574;SDS011;38468;48.114;-1.684;2023-04-25T04:09:13;10.20;;;4.47;;
52574;SDS011;38468;48.114;-1.684;2023-04-25T04:11:13;13.80;;;5.10;;
52574;SDS011;38468;48.114;-1.684;2023-04-25T04:13:14;9.93;;;4.57;;
52574;SDS011;38468;48.114;-1.684;2023-04-25T04:15:14;15.40;;;5.72;;
52574;SDS011;38468;48.114;-1.684;2023-04-25T04:17:15;9.77;;;5.03;;
52574;SDS011;38468;48.114;-1.684;2023-04-25T04:19:16;8.68;;;5.18;;
52574;SDS011;38468;48.114;-1.684;2023-04-25T04:21:16;12.40;;;4.93;;
52574;SDS011;38468;48.114;-1.684;2023-04-25T04:23:17;8.68;;;4.43;;
52574;SDS011;38468;48.114;-1.684;2023-04-25T04:25:19;12.20;;;5.13;;
52574;SDS011;38468;48.114;-1.684;2023-04-25T04:27:20;9.50;;;4.57;;
52574;SDS011;38468;48.114;-1.684;2023-04-25T04:29:21;13.00;;;4.50;;
52574;SDS011;38468;48.114;-1.684;2023-04-25T04:31:22;11.98;;;5.47;;
52574;SDS011;38468;48.114;-1.684;2023-04-25T04:33:23;9.55;;;4.00;;
52574;SDS011;38468;48.114;-1.684;2023-04-25T04:35:24;9.05;;;4.95;;
52574;SDS011;38468;48.114;-1.684;2023-04-25T04:37:25;12.05;;;5.38;;
52574;SDS011;38468;48.114;-1.684;2023-04-25T04:39:25;14.20;;;5.07;;
52574;SDS011;38468;48.114;-1.684;2023-04-25T04:41:26;7.68;;;4.55;;
52574;SDS011;38468;48.114;-1.684;2023-04-25T04:43:27;9.23;;;5.07;;
52574;SDS011;38468;48.114;-1.684;2023-04-25T04:45:28;11.75;;;5.18;;
52574;SDS011;38468;48.114;-1.684;2023-04-25T04:47:29;11.35;;;4.68;;
52574;SDS011;38468;48.114;-1.684;2023-04-25T04:49:33;9.30;;;5.07;;
52574;SDS011;38468;48.114;-1.684;2023-04-25T04:51:35;11.98;;;4.65;;
52574;SDS011;38468;48.114;-1.684;2023-04-25T04:53:37;13.23;;;5.25;;
52574;SDS011;38468;48.114;-1.684;2023-04-25T04:55:38;11.70;;;4.97;;
52574;SDS011;38468;48.114;-1.684;2023-04-25T04:57:39;18.55;;;5.05;;
52574;SDS011;38468;48.114;-1.684;2023-04-25T04:59:39;11.18;;;5.75;;
52574;SDS011;38468;48.114;-1.684;2023-04-25T05:01:40;11.48;;;4.68;;
52574;SDS011;38468;48.114;-1.684;2023-04-25T05:03:40;8.80;;;4.80;;
52574;SDS011;38468;48.114;-1.684;2023-04-25T05:05:41;9.27;;;5.00;;
52574;SDS011;38468;48.114;-1.684;2023-04-25T05:07:42;18.35;;;6.03;;
52574;SDS011;38468;48.114;-1.684;2023-04-25T05:09:42;16.35;;;6.30;;
52574;SDS011;38468;48.114;-1.684;2023-04-25T05:11:43;9.52;;;5.22;;
52574;SDS011;38468;48.114;-1.684;2023-04-25T05:13:44;10.10;;;5.07;;
52574;SDS011;38468;48.114;-1.684;2023-04-25T05:15:45;16.33;;;5.40;;
52574;SDS011;38468;48.114;-1.684;2023-04-25T05:17:46;12.40;;;5.72;;
52574;SDS011;38468;48.114;-1.684;2023-04-25T05:19:47;13.57;;;6.00;;
52574;SDS011;38468;48.114;-1.684;2023-04-25T05:21:48;13.68;;;5.97;;
52574;SDS011;38468;48.114;-1.684;2023-04-25T05:23:48;10.55;;;5.47;;
52574;SDS011;38468;48.114;-1.684;2023-04-25T05:25:49;13.68;;;4.85;;
52574;SDS011;38468;48.114;-1.684;2023-04-25T05:27:50;11.35;;;5.15;;
52574;SDS011;38468;48.114;-1.684;2023-04-25T05:29:52;13.88;;;5.40;;
52574;SDS011;38468;48.114;-1.684;2023-04-25T05:31:53;11.73;;;5.50;;
52574;SDS011;38468;48.114;-1.684;2023-04-25T05:33:53;9.00;;;5.90;;
52574;SDS011;38468;48.114;-1.684;2023-04-25T05:35:54;8.57;;;5.15;;
52574;SDS011;38468;48.114;-1.684;2023-04-25T05:37:55;11.13;;;5.38;;
52574;SDS011;38468;48.114;-1.684;2023-04-25T05:39:56;7.47;;;5.10;;
52574;SDS011;38468;48.114;-1.684;2023-04-25T05:41:56;10.27;;;5.65;;
52574;SDS011;38468;48.114;-1.684;2023-04-25T05:43:57;10.48;;;5.13;;
52574;SDS011;38468;48.114;-1.684;2023-04-25T05:45:58;10.63;;;5.38;;
52574;SDS011;38468;48.114;-1.684;2023-04-25T05:47:59;11.70;;;5.28;;
52574;SDS011;38468;48.114;-1.684;2023-04-25T05:49:59;12.23;;;6.32;;
52574;SDS011;38468;48.114;-1.684;2023-04-25T05:52:00;12.02;;;6.10;;
52574;SDS011;38468;48.114;-1.684;2023-04-25T05:54:01;12.57;;;5.70;;
52574;SDS011;38468;48.114;-1.684;2023-04-25T05:56:01;9.18;;;5.47;;
52574;SDS011;38468;48.114;-1.684;2023-04-25T05:58:02;13.70;;;5.50;;
52574;SDS011;38468;48.114;-1.684;2023-04-25T06:00:03;11.40;;;6.13;;
52574;SDS011;38468;48.114;-1.684;2023-04-25T06:02:08;10.27;;;6.05;;
52574;SDS011;38468;48.114;-1.684;2023-04-25T06:04:09;9.45;;;5.70;;
52574;SDS011;38468;48.114;-1.684;2023-04-25T06:06:11;10.05;;;5.15;;
52574;SDS011;38468;48.114;-1.684;2023-04-25T06:08:11;6.72;;;4.72;;
52574;SDS011;38468;48.114;-1.684;2023-04-25T06:10:12;17.02;;;5.63;;
52574;SDS011;38468;48.114;-1.684;2023-04-25T06:12:13;13.88;;;5.25;;
52574;SDS011;38468;48.114;-1.684;2023-04-25T06:14:13;7.45;;;4.68;;
52574;SDS011;38468;48.114;-1.684;2023-04-25T06:16:14;10.68;;;5.75;;
52574;SDS011;38468;48.114;-1.684;2023-04-25T06:18:15;6.07;;;5.25;;
52574;SDS011;38468;48.114;-1.684;2023-04-25T06:20:22;11.43;;;5.10;;
52574;SDS011;38468;48.114;-1.684;2023-04-25T06:22:24;12.98;;;5.53;;
52574;SDS011;38468;48.114;-1.684;2023-04-25T06:24:25;8.98;;;5.32;;
52574;SDS011;38468;48.114;-1.684;2023-04-25T06:26:25;12.35;;;7.10;;
52574;SDS011;38468;48.114;-1.684;2023-04-25T06:28:26;9.45;;;5.57;;
52574;SDS011;38468;48.114;-1.684;2023-04-25T06:30:26;12.63;;;5.43;;
52574;SDS011;38468;48.114;-1.684;2023-04-25T06:32:27;11.52;;;6.15;;
52574;SDS011;38468;48.114;-1.684;2023-04-25T06:34:29;10.57;;;4.93;;
52574;SDS011;38468;48.114;-1.684;2023-04-25T06:36:30;13.73;;;6.05;;
52574;SDS011;38468;48.114;-1.684;2023-04-25T06:38:31;10.93;;;6.15;;
52574;SDS011;38468;48.114;-1.684;2023-04-25T06:40:31;10.68;;;5.63;;
52574;SDS011;38468;48.114;-1.684;2023-04-25T06:42:32;11.15;;;5.82;;
52574;SDS011;38468;48.114;-1.684;2023-04-25T06:44:33;10.52;;;5.93;;
52574;SDS011;38468;48.114;-1.684;2023-04-25T06:46:33;18.77;;;8.88;;
52574;SDS011;38468;48.114;-1.684;2023-04-25T06:48:34;8.70;;;5.63;;
52574;SDS011;38468;48.114;-1.684;2023-04-25T06:50:35;9.60;;;5.40;;
52574;SDS011;38468;48.114;-1.684;2023-04-25T06:52:35;12.73;;;5.60;;
52574;SDS011;38468;48.114;-1.684;2023-04-25T06:54:36;11.77;;;5.82;;
52574;SDS011;38468;48.114;-1.684;2023-04-25T06:56:36;7.68;;;5.40;;
52574;SDS011;38468;48.114;-1.684;2023-04-25T06:58:37;9.70;;;6.38;;
52574;SDS011;38468;48.114;-1.684;2023-04-25T07:00:38;9.52;;;6.10;;
52574;SDS011;38468;48.114;-1.684;2023-04-25T07:02:38;11.00;;;6.07;;
52574;SDS011;38468;48.114;-1.684;2023-04-25T07:04:40;11.70;;;6.23;;
52574;SDS011;38468;48.114;-1.684;2023-04-25T07:06:41;14.90;;;7.07;;
52574;SDS011;38468;48.114;-1.684;2023-04-25T07:08:42;8.25;;;6.03;;
52574;SDS011;38468;48.114;-1.684;2023-04-25T07:10:43;17.10;;;5.95;;
52574;SDS011;38468;48.114;-1.684;2023-04-25T07:12:46;8.85;;;5.63;;
52574;SDS011;38468;48.114;-1.684;2023-04-25T07:14:46;11.02;;;5.97;;
52574;SDS011;38468;48.114;-1.684;2023-04-25T07:16:47;6.35;;;5.32;;
52574;SDS011;38468;48.114;-1.684;2023-04-25T07:18:47;7.80;;;6.32;;
52574;SDS011;38468;48.114;-1.684;2023-04-25T07:20:48;9.88;;;6.03;;
52574;SDS011;38468;48.114;-1.684;2023-04-25T07:22:49;11.43;;;5.93;;
52574;SDS011;38468;48.114;-1.684;2023-04-25T07:24:50;14.23;;;5.90;;
52574;SDS011;38468;48.114;-1.684;2023-04-25T07:26:50;11.70;;;6.53;;
52574;SDS011;38468;48.114;-1.684;2023-04-25T07:28:51;7.47;;;5.18;;
52574;SDS011;38468;48.114;-1.684;2023-04-25T07:30:52;9.10;;;5.30;;
52574;SDS011;38468;48.114;-1.684;2023-04-25T07:32:52;8.38;;;6.05;;
52574;SDS011;38468;48.114;-1.684;2023-04-25T07:34:53;7.93;;;5.32;;
52574;SDS011;38468;48.114;-1.684;2023-04-25T07:36:53;11.95;;;6.07;;
52574;SDS011;38468;48.114;-1.684;2023-04-25T07:38:54;12.57;;;7.03;;
52574;SDS011;38468;48.114;-1.684;2023-04-25T07:40:55;11.82;;;5.95;;
52574;SDS011;38468;48.114;-1.684;2023-04-25T07:42:55;6.65;;;5.68;;
52574;SDS011;38468;48.114;-1.684;2023-04-25T07:44:56;8.05;;;6.32;;
52574;SDS011;38468;48.114;-1.684;2023-04-25T07:46:57;8.05;;;5.60;;
52574;SDS011;38468;48.114;-1.684;2023-04-25T07:48:57;10.55;;;6.68;;
52574;SDS011;38468;48.114;-1.684;2023-04-25T07:50:58;12.93;;;7.05;;
52574;SDS011;38468;48.114;-1.684;2023-04-25T07:52:58;9.95;;;5.97;;
52574;SDS011;38468;48.114;-1.684;2023-04-25T07:54:59;13.93;;;6.20;;
52574;SDS011;38468;48.114;-1.684;2023-04-25T07:57:00;12.43;;;6.05;;
52574;SDS011;38468;48.114;-1.684;2023-04-25T07:59:02;10.52;;;6.10;;
52574;SDS011;38468;48.114;-1.684;2023-04-25T08:01:02;14.60;;;5.70;;
52574;SDS011;38468;48.114;-1.684;2023-04-25T08:03:03;11.18;;;6.35;;
52574;SDS011;38468;48.114;-1.684;2023-04-25T08:05:04;8.05;;;6.40;;
52574;SDS011;38468;48.114;-1.684;2023-04-25T08:07:07;7.03;;;6.22;;
52574;SDS011;38468;48.114;-1.684;2023-04-25T08:09:08;6.78;;;6.13;;
52574;SDS011;38468;48.114;-1.684;2023-04-25T08:11:09;9.73;;;5.70;;
52574;SDS011;38468;48.114;-1.684;2023-04-25T08:13:10;8.43;;;5.65;;
52574;SDS011;38468;48.114;-1.684;2023-04-25T08:15:11;7.72;;;5.30;;
52574;SDS011;38468;48.114;-1.684;2023-04-25T08:17:13;5.68;;;4.85;;
52574;SDS011;38468;48.114;-1.684;2023-04-25T08:19:14;7.28;;;5.45;;
52574;SDS011;38468;48.114;-1.684;2023-04-25T08:21:15;7.57;;;5.32;;
52574;SDS011;38468;48.114;-1.684;2023-04-25T08:23:15;8.45;;;5.00;;
52574;SDS011;38468;48.114;-1.684;2023-04-25T08:25:16;5.38;;;4.32;;
52574;SDS011;38468;48.114;-1.684;2023-04-25T08:27:17;6.80;;;5.10;;
52574;SDS011;38468;48.114;-1.684;2023-04-25T08:29:19;6.22;;;4.85;;
52574;SDS011;38468;48.114;-1.684;2023-04-25T08:31:19;7.38;;;5.05;;
52574;SDS011;38468;48.114;-1.684;2023-04-25T08:33:20;7.93;;;4.43;;
52574;SDS011;38468;48.114;-1.684;2023-04-25T08:35:21;10.30;;;5.32;;
52574;SDS011;38468;48.114;-1.684;2023-04-25T08:37:22;8.55;;;4.47;;
52574;SDS011;38468;48.114;-1.684;2023-04-25T08:39:22;4.97;;;4.28;;
52574;SDS011;38468;48.114;-1.684;2023-04-25T08:41:23;7.53;;;4.60;;
52574;SDS011;38468;48.114;-1.684;2023-04-25T08:43:25;5.97;;;4.30;;
52574;SDS011;38468;48.114;-1.684;2023-04-25T08:45:27;7.03;;;4.18;;
52574;SDS011;38468;48.114;-1.684;2023-04-25T08:47:31;8.98;;;4.75;;
52574;SDS011;38468;48.114;-1.684;2023-04-25T08:49:34;5.93;;;4.63;;
52574;SDS011;38468;48.114;-1.684;2023-04-25T08:51:36;6.80;;;4.15;;
52574;SDS011;38468;48.114;-1.684;2023-04-25T08:53:46;6.63;;;4.28;;
52574;SDS011;38468;48.114;-1.684;2023-04-25T08:55:50;5.22;;;4.00;;
52574;SDS011;38468;48.114;-1.684;2023-04-25T08:57:52;7.63;;;4.35;;
52574;SDS011;38468;48.114;-1.684;2023-04-25T09:01:55;9.13;;;4.80;;
52574;SDS011;38468;48.114;-1.684;2023-04-25T09:03:57;9.00;;;5.25;;
52574;SDS011;38468;48.114;-1.684;2023-04-25T09:05:57;13.15;;;5.05;;
52574;SDS011;38468;48.114;-1.684;2023-04-25T09:07:58;7.05;;;4.93;;
52574;SDS011;38468;48.114;-1.684;2023-04-25T09:10:00;6.20;;;4.75;;
52574;SDS011;38468;48.114;-1.684;2023-04-25T09:12:03;9.27;;;4.25;;
52574;SDS011;38468;48.114;-1.684;2023-04-25T09:14:15;7.13;;;4.32;;
52574;SDS011;38468;48.114;-1.684;2023-04-25T09:16:20;5.43;;;4.75;;
52574;SDS011;38468;48.114;-1.684;2023-04-25T09:18:25;9.95;;;5.25;;
52574;SDS011;38468;48.114;-1.684;2023-04-25T09:20:26;5.50;;;3.70;;
52574;SDS011;38468;48.114;-1.684;2023-04-25T09:22:28;8.88;;;4.53;;
52574;SDS011;38468;48.114;-1.684;2023-04-25T09:26:33;6.38;;;3.97;;
52574;SDS011;38468;48.114;-1.684;2023-04-25T09:28:34;4.88;;;3.55;;
52574;SDS011;38468;48.114;-1.684;2023-04-25T09:30:35;5.68;;;3.67;;
52574;SDS011;38468;48.114;-1.684;2023-04-25T09:32:36;7.53;;;3.75;;
52574;SDS011;38468;48.114;-1.684;2023-04-25T09:34:38;6.10;;;3.65;;
52574;SDS011;38468;48.114;-1.684;2023-04-25T09:36:40;5.03;;;3.85;;
52574;SDS011;38468;48.114;-1.684;2023-04-25T09:38:45;6.78;;;4.38;;
52574;SDS011;38468;48.114;-1.684;2023-04-25T09:40:46;5.75;;;4.13;;
52574;SDS011;38468;48.114;-1.684;2023-04-25T09:42:49;4.32;;;3.92;;
52574;SDS011;38468;48.114;-1.684;2023-04-25T09:44:53;4.82;;;3.30;;
52574;SDS011;38468;48.114;-1.684;2023-04-25T09:46:55;8.95;;;4.47;;
52574;SDS011;38468;48.114;-1.684;2023-04-25T09:48:57;5.53;;;3.90;;
52574;SDS011;38468;48.114;-1.684;2023-04-25T09:51:10;5.40;;;3.85;;
52574;SDS011;38468;48.114;-1.684;2023-04-25T09:53:13;5.47;;;3.55;;
52574;SDS011;38468;48.114;-1.684;2023-04-25T09:55:14;4.32;;;2.88;;
52574;SDS011;38468;48.114;-1.684;2023-04-25T09:59:23;6.07;;;3.55;;
52574;SDS011;38468;48.114;-1.684;2023-04-25T10:01:24;4.68;;;4.00;;
52574;SDS011;38468;48.114;-1.684;2023-04-25T10:03:26;7.85;;;4.57;;
52574;SDS011;38468;48.114;-1.684;2023-04-25T10:05:28;5.43;;;4.30;;
52574;SDS011;38468;48.114;-1.684;2023-04-25T10:07:31;6.97;;;3.85;;
52574;SDS011;38468;48.114;-1.684;2023-04-25T10:09:38;6.90;;;3.22;;
52574;SDS011;38468;48.114;-1.684;2023-04-25T10:11:39;3.80;;;3.42;;
52574;SDS011;38468;48.114;-1.684;2023-04-25T10:13:41;5.40;;;4.03;;
52574;SDS011;38468;48.114;-1.684;2023-04-25T10:15:42;8.10;;;3.60;;
52574;SDS011;38468;48.114;-1.684;2023-04-25T10:17:43;6.03;;;4.25;;
52574;SDS011;38468;48.114;-1.684;2023-04-25T10:19:46;5.60;;;3.63;;
52574;SDS011;38468;48.114;-1.684;2023-04-25T10:21:51;6.32;;;3.28;;
52574;SDS011;38468;48.114;-1.684;2023-04-25T10:24:03;4.47;;;3.47;;
52574;SDS011;38468;48.114;-1.684;2023-04-25T10:26:04;5.75;;;3.70;;
52574;SDS011;38468;48.114;-1.684;2023-04-25T10:28:05;6.70;;;4.38;;
52574;SDS011;38468;48.114;-1.684;2023-04-25T10:30:10;5.43;;;4.05;;
52574;SDS011;38468;48.114;-1.684;2023-04-25T10:32:14;3.40;;;3.10;;
52574;SDS011;38468;48.114;-1.684;2023-04-25T10:34:16;4.32;;;3.40;;
52574;SDS011;38468;48.114;-1.684;2023-04-25T10:36:18;4.85;;;3.10;;
52574;SDS011;38468;48.114;-1.684;2023-04-25T10:38:20;5.43;;;4.10;;
52574;SDS011;38468;48.114;-1.684;2023-04-25T10:40:22;5.00;;;3.00;;
52574;SDS011;38468;48.114;-1.684;2023-04-25T10:42:23;5.15;;;2.97;;
52574;SDS011;38468;48.114;-1.684;2023-04-25T10:44:27;3.80;;;3.40;;
52574;SDS011;38468;48.114;-1.684;2023-04-25T10:46:28;3.55;;;3.03;;
52574;SDS011;38468;48.114;-1.684;2023-04-25T10:48:32;4.22;;;2.92;;
52574;SDS011;38468;48.114;-1.684;2023-04-25T10:50:37;5.78;;;3.63;;
52574;SDS011;38468;48.114;-1.684;2023-04-25T10:52:39;4.80;;;2.75;;
52574;SDS011;38468;48.114;-1.684;2023-04-25T10:54:47;2.50;;;2.30;;
52574;SDS011;38468;48.114;-1.684;2023-04-25T10:56:48;7.07;;;2.60;;
52574;SDS011;38468;48.114;-1.684;2023-04-25T10:58:50;4.10;;;2.88;;
52574;SDS011;38468;48.114;-1.684;2023-04-25T11:00:51;4.32;;;2.83;;
52574;SDS011;38468;48.114;-1.684;2023-04-25T11:02:53;3.20;;;3.00;;
52574;SDS011;38468;48.114;-1.684;2023-04-25T11:04:58;4.68;;;2.88;;
52574;SDS011;38468;48.114;-1.684;2023-04-25T11:09:33;4.85;;;2.72;;
52574;SDS011;38468;48.114;-1.684;2023-04-25T11:11:36;4.82;;;3.05;;
52574;SDS011;38468;48.114;-1.684;2023-04-25T11:13:36;4.22;;;3.30;;
52574;SDS011;38468;48.114;-1.684;2023-04-25T11:15:37;4.88;;;3.45;;
52574;SDS011;38468;48.114;-1.684;2023-04-25T11:17:38;3.88;;;3.50;;
52574;SDS011;38468;48.114;-1.684;2023-04-25T11:21:40;5.00;;;3.60;;
52574;SDS011;38468;48.114;-1.684;2023-04-25T11:23:43;3.35;;;2.67;;
52574;SDS011;38468;48.114;-1.684;2023-04-25T11:25:46;3.83;;;2.65;;
52574;SDS011;38468;48.114;-1.684;2023-04-25T11:27:53;7.30;;;3.58;;
52574;SDS011;38468;48.114;-1.684;2023-04-25T11:29:54;7.25;;;3.47;;
52574;SDS011;38468;48.114;-1.684;2023-04-25T11:31:55;5.47;;;3.50;;
52574;SDS011;38468;48.114;-1.684;2023-04-25T11:33:57;3.38;;;2.88;;
52574;SDS011;38468;48.114;-1.684;2023-04-25T11:35:58;2.90;;;2.40;;
52574;SDS011;38468;48.114;-1.684;2023-04-25T11:37:59;3.22;;;2.42;;
52574;SDS011;38468;48.114;-1.684;2023-04-25T11:40:02;7.53;;;3.00;;
52574;SDS011;38468;48.114;-1.684;2023-04-25T11:42:03;3.97;;;3.20;;
52574;SDS011;38468;48.114;-1.684;2023-04-25T11:44:05;5.40;;;2.97;;
52574;SDS011;38468;48.114;-1.684;2023-04-25T11:46:06;5.22;;;2.78;;
52574;SDS011;38468;48.114;-1.684;2023-04-25T11:48:07;7.45;;;4.35;;
52574;SDS011;38468;48.114;-1.684;2023-04-25T11:50:08;6.85;;;3.78;;
52574;SDS011;38468;48.114;-1.684;2023-04-25T11:52:09;4.13;;;3.55;;
52574;SDS011;38468;48.114;-1.684;2023-04-25T11:54:10;7.35;;;3.90;;
52574;SDS011;38468;48.114;-1.684;2023-04-25T11:56:12;7.43;;;3.72;;
52574;SDS011;38468;48.114;-1.684;2023-04-25T11:58:13;6.00;;;3.83;;
52574;SDS011;38468;48.114;-1.684;2023-04-25T12:00:14;4.45;;;4.03;;
52574;SDS011;38468;48.114;-1.684;2023-04-25T12:02:26;6.38;;;3.88;;
52574;SDS011;38468;48.114;-1.684;2023-04-25T12:04:29;4.80;;;3.42;;
52574;SDS011;38468;48.114;-1.684;2023-04-25T12:06:31;4.97;;;3.97;;